Time;durP1;ratioP1;P1;durP2;ratioP2;P2;SDS_P1;SDS_P2;PMS_P1;PMS_P2;Temp;Humidity;BMP_temperature;BMP_pressure;BME280_temperature;BME280_humidity;BME280_pressure;Samples;Min_cycle;Max_cycle;Signal;HPM_P1;HPM_P2
2024/01/08 00:00:54;;;;;;;0.60;0.60;;;;;;;3.99;100.00;97798.56;5111898;28;20198;-59
2024/01/08 00:03:21;;;;;;;0.43;0.40;;;;;;;3.91;100.00;97795.72;5111693;28;20219;-60
2024/01/08 00:05:47;;;;;;;1.33;0.97;;;;;;;3.90;100.00;97794.94;5111115;28;20189;-60
2024/01/08 00:08:14;;;;;;;0.63;0.47;;;;;;;3.93;100.00;97789.66;5111541;28;20208;-60
2024/01/08 00:10:41;;;;;;;3.60;0.83;;;;;;;3.84;100.00;97798.66;5111864;28;20225;-60
2024/01/08 00:13:09;;;;;;;0.97;0.50;;;;;;;3.86;100.00;97799.34;5110820;28;20198;-60
2024/01/08 00:15:36;;;;;;;0.50;0.50;;;;;;;3.81;100.00;97801.41;5111300;28;20221;-60
2024/01/08 00:18:04;;;;;;;1.03;0.67;;;;;;;3.90;100.00;97804.22;5111628;28;20201;-60
2024/01/08 00:20:30;;;;;;;1.07;0.97;;;;;;;3.89;100.00;97810.19;5110773;28;20194;-60
2024/01/08 00:22:57;;;;;;;0.57;0.57;;;;;;;3.81;100.00;97816.56;5111071;28;20201;-60
2024/01/08 00:25:24;;;;;;;0.67;0.63;;;;;;;3.85;100.00;97820.50;5111260;28;20239;-60
2024/01/08 00:27:51;;;;;;;0.83;0.70;;;;;;;3.73;100.00;97818.78;5110895;28;20208;-60
2024/01/08 00:30:19;;;;;;;0.50;0.50;;;;;;;3.63;100.00;97822.78;5110546;28;20212;-60
2024/01/08 00:32:46;;;;;;;0.30;0.30;;;;;;;3.71;100.00;97828.16;5111239;28;20295;-60
2024/01/08 00:35:13;;;;;;;1.13;1.03;;;;;;;3.60;100.00;97828.03;5110953;28;20205;-60
2024/01/08 00:37:41;;;;;;;1.03;0.90;;;;;;;3.63;100.00;97832.91;5110520;27;20554;-60
2024/01/08 00:40:09;;;;;;;0.47;0.47;;;;;;;3.58;100.00;97832.41;5111124;28;20197;-59
2024/01/08 00:42:36;;;;;;;0.83;0.83;;;;;;;3.66;100.00;97821.78;5111119;28;20228;-60
2024/01/08 00:45:03;;;;;;;0.80;0.50;;;;;;;3.50;100.00;97827.03;5110218;28;20268;-60
2024/01/08 00:47:32;;;;;;;1.03;1.00;;;;;;;3.47;100.00;97838.13;5110746;28;20197;-60
2024/01/08 00:49:59;;;;;;;0.93;0.70;;;;;;;3.33;100.00;97841.53;5111139;28;20208;-60
2024/01/08 00:52:26;;;;;;;0.50;0.50;;;;;;;3.30;100.00;97841.72;5110293;28;20204;-60
2024/01/08 00:54:53;;;;;;;1.27;0.77;;;;;;;3.10;100.00;97854.78;5109949;28;20229;-60
2024/01/08 00:57:20;;;;;;;1.10;1.00;;;;;;;3.07;100.00;97844.84;5110757;28;20605;-60
2024/01/08 00:59:46;;;;;;;0.97;0.90;;;;;;;3.20;100.00;97855.00;5110379;28;20693;-60
2024/01/08 01:02:13;;;;;;;0.20;0.20;;;;;;;3.12;100.00;97858.03;5109949;28;20204;-59
2024/01/08 01:04:41;;;;;;;0.43;0.43;;;;;;;3.21;100.00;97857.44;5110277;28;20232;-60
2024/01/08 01:07:08;;;;;;;0.73;0.73;;;;;;;3.12;100.00;97852.97;5110869;28;20208;-60
2024/01/08 01:09:35;;;;;;;0.50;0.50;;;;;;;3.18;100.00;97853.41;5109642;28;20208;-60
2024/01/08 01:12:02;;;;;;;0.67;0.67;;;;;;;3.11;100.00;97851.31;5110394;28;20193;-60
2024/01/08 01:14:29;;;;;;;2.43;0.93;;;;;;;2.99;100.00;97857.94;5110288;28;20247;-60
2024/01/08 01:16:55;;;;;;;1.30;0.97;;;;;;;3.05;100.00;97856.75;5109608;28;20600;-60
2024/01/08 01:19:22;;;;;;;0.83;0.80;;;;;;;3.09;100.00;97856.50;5109851;28;20216;-60
2024/01/08 01:21:51;;;;;;;0.80;0.67;;;;;;;3.00;100.00;97863.81;5110482;28;20361;-60
2024/01/08 01:24:17;;;;;;;0.70;0.70;;;;;;;2.97;100.00;97856.41;5109804;28;20620;-60
2024/01/08 01:26:44;;;;;;;1.50;0.93;;;;;;;2.88;100.00;97860.31;5109398;28;20209;-60
2024/01/08 01:29:11;;;;;;;0.50;0.50;;;;;;;2.87;100.00;97864.53;5110252;28;20201;-59
2024/01/08 01:31:38;;;;;;;0.50;0.50;;;;;;;2.87;100.00;97867.06;5109893;28;20208;-60
2024/01/08 01:34:06;;;;;;;1.17;0.83;;;;;;;2.80;100.00;97862.50;5109389;28;20204;-59
2024/01/08 01:36:35;;;;;;;1.33;1.17;;;;;;;2.80;100.00;97870.88;5110565;28;20262;-59
2024/01/08 01:39:03;;;;;;;1.30;1.03;;;;;;;2.79;100.00;97874.28;5110015;27;20197;-60
2024/01/08 01:41:30;;;;;;;1.53;1.27;;;;;;;2.71;100.00;97869.72;5108841;28;20732;-60
2024/01/08 01:43:57;;;;;;;4.47;1.00;;;;;;;2.71;100.00;97864.66;5109475;28;20206;-59
2024/01/08 01:46:28;;;;;;;0.70;0.70;;;;;;;2.72;100.00;97865.47;5109654;28;20587;-60
2024/01/08 01:48:55;;;;;;;1.13;0.90;;;;;;;2.74;100.00;97872.97;5109507;28;20286;-59
2024/01/08 01:51:22;;;;;;;0.73;0.73;;;;;;;2.65;100.00;97869.28;5109013;28;20700;-60
2024/01/08 01:53:50;;;;;;;0.80;0.80;;;;;;;2.66;100.00;97860.81;5110010;28;20211;-60
2024/01/08 01:56:18;;;;;;;0.40;0.33;;;;;;;2.55;100.00;97868.19;5109169;28;20193;-60
2024/01/08 01:58:47;;;;;;;0.97;0.87;;;;;;;2.52;100.00;97868.38;5108674;28;20748;-60
2024/01/08 02:01:14;;;;;;;0.87;0.83;;;;;;;2.47;100.00;97872.00;5109490;28;20251;-59
2024/01/08 02:03:42;;;;;;;1.03;0.67;;;;;;;2.47;100.00;97874.53;5109504;28;20246;-60
2024/01/08 02:06:12;;;;;;;0.20;0.20;;;;;;;2.48;100.00;97878.66;5108265;28;20722;-60
2024/01/08 02:08:39;;;;;;;0.87;0.50;;;;;;;2.59;100.00;97869.63;5109220;28;20697;-59
2024/01/08 02:11:06;;;;;;;0.63;0.40;;;;;;;2.45;100.00;97868.75;5108901;28;20205;-59
2024/01/08 02:13:34;;;;;;;0.20;0.20;;;;;;;2.44;100.00;97871.34;5108642;28;20692;-60
2024/01/08 02:16:01;;;;;;;1.27;1.10;;;;;;;2.28;100.00;97878.19;5108726;28;20193;-60
2024/01/08 02:18:30;;;;;;;1.97;1.20;;;;;;;2.14;100.00;97876.47;5109293;28;20208;-60
2024/01/08 02:20:57;;;;;;;0.37;0.37;;;;;;;2.09;100.00;97886.00;5108825;28;20201;-60
2024/01/08 02:23:25;;;;;;;0.97;0.50;;;;;;;2.09;100.00;97875.91;5108566;28;20205;-59
2024/01/08 02:25:52;;;;;;;1.07;0.80;;;;;;;2.01;100.00;97883.94;5108989;28;20233;-60
2024/01/08 02:28:19;;;;;;;0.20;0.20;;;;;;;2.05;100.00;97880.31;5109111;28;20197;-60
2024/01/08 02:30:46;;;;;;;0.90;0.77;;;;;;;2.02;100.00;97885.53;5108456;28;20408;-60
2024/01/08 02:33:13;;;;;;;0.43;0.40;;;;;;;1.97;100.00;97890.81;5109218;28;20685;-60
2024/01/08 02:35:40;;;;;;;2.93;1.00;;;;;;;1.87;100.00;97897.28;5108970;28;20205;-60
2024/01/08 02:38:07;;;;;;;1.27;0.70;;;;;;;1.82;100.00;97884.13;5108059;28;20193;-60
2024/01/08 02:40:35;;;;;;;0.80;0.80;;;;;;;1.92;100.00;97892.81;5108151;28;20221;-60
2024/01/08 02:43:02;;;;;;;0.47;0.47;;;;;;;1.85;100.00;97894.03;5108047;28;20205;-60
2024/01/08 02:45:28;;;;;;;0.80;0.60;;;;;;;1.81;100.00;97885.03;5108721;28;20626;-59
2024/01/08 02:47:55;;;;;;;1.43;0.60;;;;;;;1.78;100.00;97892.78;5108870;28;20217;-59
2024/01/08 02:50:22;;;;;;;0.27;0.27;;;;;;;1.87;100.00;97902.34;5107900;28;20201;-60
2024/01/08 02:52:49;;;;;;;2.47;0.77;;;;;;;1.82;100.00;97901.78;5108440;28;20208;-59
2024/01/08 02:55:15;;;;;;;0.47;0.47;;;;;;;1.74;100.00;97901.38;5108901;28;20197;-60
2024/01/08 02:57:44;;;;;;;1.40;1.07;;;;;;;1.64;100.00;97910.34;5108219;28;20201;-60
2024/01/08 03:00:11;;;;;;;1.13;0.60;;;;;;;1.80;100.00;97906.06;5108394;28;20236;-60
2024/01/08 03:02:40;;;;;;;0.10;0.10;;;;;;;1.77;100.00;97921.38;5108670;28;20194;-60
2024/01/08 03:05:07;;;;;;;0.70;0.70;;;;;;;1.86;100.00;97915.00;5108493;28;20341;-60
2024/01/08 03:07:34;;;;;;;0.40;0.40;;;;;;;1.67;100.00;97920.28;5108265;28;20205;-60
2024/01/08 03:10:00;;;;;;;0.80;0.80;;;;;;;1.66;100.00;97924.50;5108819;28;20220;-59
2024/01/08 03:12:27;;;;;;;0.10;0.10;;;;;;;1.65;100.00;97917.00;5108742;28;20681;-59
2024/01/08 03:14:55;;;;;;;0.30;0.30;;;;;;;1.61;100.00;97925.66;5108135;28;20218;-60
2024/01/08 03:17:22;;;;;;;1.10;1.03;;;;;;;1.59;100.00;97924.00;5108362;28;20205;-60
2024/01/08 03:19:50;;;;;;;0.80;0.80;;;;;;;1.61;100.00;97928.16;5108517;28;20220;-59
2024/01/08 03:22:17;;;;;;;1.17;0.83;;;;;;;1.70;100.00;97930.97;5108628;28;20208;-60
2024/01/08 03:24:44;;;;;;;0.87;0.87;;;;;;;1.56;100.00;97933.44;5111882;28;20228;-60
2024/01/08 03:27:10;;;;;;;0.53;0.53;;;;;;;1.61;100.00;97945.78;5112446;28;20201;-60
2024/01/08 03:29:37;;;;;;;1.53;0.67;;;;;;;1.66;100.00;97933.75;5112300;28;20712;-60
2024/01/08 03:32:09;;;;;;;0.20;0.20;;;;;;;1.77;100.00;97932.25;5111769;28;20233;-60
2024/01/08 03:34:36;;;;;;;1.37;0.70;;;;;;;1.59;100.00;97948.38;5112713;28;20201;-60
2024/01/08 03:37:02;;;;;;;2.43;1.67;;;;;;;1.48;100.00;97956.50;5112876;28;20200;-59
2024/01/08 03:39:30;;;;;;;1.70;1.13;;;;;;;1.44;100.00;97954.25;5111338;28;20204;-60
2024/01/08 03:41:56;;;;;;;1.63;1.20;;;;;;;1.36;100.00;97952.13;5112299;28;20205;-59
2024/01/08 03:44:23;;;;;;;2.80;1.30;;;;;;;1.42;100.00;97961.88;5112130;28;20205;-60
2024/01/08 03:46:51;;;;;;;1.00;0.97;;;;;;;1.29;100.00;97966.75;5111600;28;20243;-59
2024/01/08 03:49:19;;;;;;;0.67;0.57;;;;;;;1.25;100.00;97972.88;5111848;28;20205;-59
2024/01/08 03:51:46;;;;;;;2.30;0.83;;;;;;;1.28;100.00;97975.22;5112168;28;20216;-59
2024/01/08 03:54:13;;;;;;;1.67;1.13;;;;;;;1.21;100.00;97973.09;5111492;28;20193;-59
2024/01/08 03:56:40;;;;;;;1.40;1.17;;;;;;;1.16;100.00;97985.09;5110966;28;20227;-59
2024/01/08 03:59:07;;;;;;;1.40;0.70;;;;;;;1.21;100.00;97983.16;5111837;28;20198;-59
2024/01/08 04:01:34;;;;;;;2.03;1.27;;;;;;;1.09;100.00;97980.38;5112247;28;20208;-60
2024/01/08 04:04:01;;;;;;;1.73;1.40;;;;;;;1.07;100.00;97992.22;5111119;28;20783;-59
2024/01/08 04:06:29;;;;;;;0.40;0.40;;;;;;;1.17;100.00;97986.75;5111609;28;20244;-59
2024/01/08 04:08:56;;;;;;;1.50;1.40;;;;;;;1.09;100.00;97990.44;5112073;28;20228;-59
2024/01/08 04:11:23;;;;;;;2.63;1.67;;;;;;;1.05;100.00;97999.06;5110779;28;20410;-59
2024/01/08 04:13:49;;;;;;;1.60;1.10;;;;;;;1.05;100.00;97993.22;5111463;28;20204;-59
2024/01/08 04:16:16;;;;;;;1.57;1.07;;;;;;;1.03;100.00;97998.31;5111612;28;20201;-59
2024/01/08 04:18:43;;;;;;;0.40;0.40;;;;;;;1.11;100.00;98003.78;5110787;28;20198;-59
2024/01/08 04:21:10;;;;;;;1.30;0.73;;;;;;;0.96;100.00;97997.00;5110355;28;20590;-60
2024/01/08 04:23:39;;;;;;;1.40;1.07;;;;;;;1.04;100.00;98004.97;5110816;28;20212;-59
2024/01/08 04:26:05;;;;;;;3.60;1.63;;;;;;;0.93;100.00;98013.94;5111186;28;20745;-59
2024/01/08 04:28:32;;;;;;;1.97;1.43;;;;;;;0.87;100.00;98015.06;5111481;28;20217;-59
2024/01/08 04:30:59;;;;;;;2.73;1.17;;;;;;;0.83;100.00;98028.69;5110430;28;20221;-59
2024/01/08 04:33:26;;;;;;;1.67;0.90;;;;;;;0.86;100.00;98036.09;5110764;28;20209;-59
2024/01/08 04:35:52;;;;;;;2.30;1.13;;;;;;;0.85;100.00;98031.97;5111077;28;20203;-59
2024/01/08 04:38:19;;;;;;;0.20;0.20;;;;;;;0.98;100.00;98040.50;5110746;28;20585;-59
2024/01/08 04:40:47;;;;;;;1.13;0.90;;;;;;;0.82;100.00;98037.16;5110289;28;20213;-59
2024/01/08 04:43:14;;;;;;;0.97;0.90;;;;;;;0.82;100.00;98037.16;5110925;28;20204;-59
2024/01/08 04:45:41;;;;;;;1.23;0.77;;;;;;;0.78;100.00;98043.22;5110504;28;20229;-60
2024/01/08 04:48:08;;;;;;;1.10;1.00;;;;;;;0.82;100.00;98053.06;5109935;27;20209;-59
2024/01/08 04:50:35;;;;;;;2.17;1.63;;;;;;;0.80;100.00;98049.78;5111124;28;20208;-59
2024/01/08 04:53:01;;;;;;;2.33;1.70;;;;;;;0.75;100.00;98053.41;5111194;28;20193;-59
2024/01/08 04:55:28;;;;;;;0.93;0.90;;;;;;;0.79;100.00;98063.28;5109971;28;20209;-59
2024/01/08 04:57:56;;;;;;;0.50;0.50;;;;;;;0.78;100.00;98065.84;5110235;28;20692;-59
2024/01/08 05:00:23;;;;;;;2.27;1.43;;;;;;;0.74;100.00;98074.44;5110661;28;20513;-59
2024/01/08 05:02:50;;;;;;;0.80;0.80;;;;;;;0.62;100.00;98079.19;5110177;28;20846;-59
2024/01/08 05:05:17;;;;;;;2.93;1.47;;;;;;;0.66;100.00;98078.13;5110236;28;20201;-59
2024/01/08 05:07:43;;;;;;;1.63;0.93;;;;;;;0.60;100.00;98083.47;5110661;28;20778;-59
2024/01/08 05:10:10;;;;;;;1.17;1.07;;;;;;;0.59;100.00;98081.84;5110534;28;20450;-59
2024/01/08 05:12:37;;;;;;;1.57;1.17;;;;;;;0.61;100.00;98090.13;5109597;28;20205;-59
2024/01/08 05:15:06;;;;;;;3.30;2.00;;;;;;;0.54;100.00;98087.97;5110835;28;20232;-59
2024/01/08 05:17:33;;;;;;;2.70;0.60;;;;;;;0.57;100.00;98092.84;5110503;28;20193;-59
2024/01/08 05:19:59;;;;;;;1.90;1.37;;;;;;;0.50;100.00;98089.81;5109433;28;20296;-59
2024/01/08 05:22:26;;;;;;;3.50;2.17;;;;;;;0.47;100.00;98102.53;5110160;28;20233;-59
2024/01/08 05:24:53;;;;;;;0.60;0.47;;;;;;;0.51;100.00;98108.25;5110096;28;20240;-59
2024/01/08 05:27:20;;;;;;;0.33;0.33;;;;;;;0.65;100.00;98116.75;5109640;28;20233;-59
2024/01/08 05:29:46;;;;;;;0.60;0.60;;;;;;;0.64;100.00;98124.38;5109396;28;20197;-60
2024/01/08 05:32:15;;;;;;;0.83;0.83;;;;;;;0.68;100.00;98125.88;5110050;28;20201;-59
2024/01/08 05:34:41;;;;;;;2.00;0.73;;;;;;;0.66;100.00;98128.44;5110164;28;20208;-59
2024/01/08 05:37:08;;;;;;;2.37;1.63;;;;;;;0.69;100.00;98132.50;5109255;28;20194;-60
2024/01/08 05:39:36;;;;;;;1.20;1.10;;;;;;;0.61;100.00;98135.41;5110087;28;20198;-59
2024/01/08 05:42:02;;;;;;;0.77;0.63;;;;;;;0.61;100.00;98135.41;5109871;28;20197;-60
2024/01/08 05:44:29;;;;;;;0.20;0.20;;;;;;;0.59;100.00;98139.69;5109048;28;20208;-60
2024/01/08 05:46:56;;;;;;;0.43;0.43;;;;;;;0.54;100.00;98146.63;5108917;28;20225;-59
2024/01/08 05:49:24;;;;;;;2.90;1.63;;;;;;;0.53;100.00;98147.53;5109527;28;20197;-59
2024/01/08 05:51:51;;;;;;;1.40;1.03;;;;;;;0.45;100.00;98144.53;5109189;28;20201;-59
2024/01/08 05:54:18;;;;;;;1.83;0.57;;;;;;;0.53;100.00;98157.59;5109221;28;20208;-59
2024/01/08 05:56:45;;;;;;;1.37;1.07;;;;;;;0.50;100.00;98157.72;5109621;28;20212;-59
2024/01/08 05:59:11;;;;;;;0.50;0.50;;;;;;;0.47;100.00;98157.88;5109197;28;20624;-59
2024/01/08 06:01:39;;;;;;;1.20;0.80;;;;;;;0.47;100.00;98157.88;5109015;28;20197;-59
2024/01/08 06:04:06;;;;;;;1.33;1.10;;;;;;;0.45;100.00;98162.16;5109388;28;20641;-60
2024/01/08 06:06:34;;;;;;;2.63;1.80;;;;;;;0.45;100.00;98170.50;5109091;28;20625;-59
2024/01/08 06:09:01;;;;;;;1.37;1.23;;;;;;;0.43;100.00;98171.44;5108567;28;20681;-59
2024/01/08 06:11:28;;;;;;;0.53;0.53;;;;;;;0.38;100.00;98178.41;5109321;28;20248;-59
2024/01/08 06:13:54;;;;;;;1.03;1.00;;;;;;;0.44;100.00;98178.13;5109798;28;20200;-59
2024/01/08 06:16:21;;;;;;;2.13;1.50;;;;;;;0.47;100.00;98188.03;5108463;28;20208;-59
2024/01/08 06:18:48;;;;;;;1.07;0.97;;;;;;;0.52;100.00;98191.13;5108873;28;20451;-59
2024/01/08 06:21:15;;;;;;;0.50;0.50;;;;;;;0.45;100.00;98197.34;5109427;28;20205;-59
2024/01/08 06:23:43;;;;;;;1.70;0.70;;;;;;;0.44;100.00;98208.31;5109044;28;20203;-59
2024/01/08 06:26:10;;;;;;;3.23;0.80;;;;;;;0.51;100.00;98212.16;5108737;28;20241;-59
2024/01/08 06:28:36;;;;;;;2.67;0.83;;;;;;;0.52;100.00;98218.81;5109118;28;20447;-59
2024/01/08 06:31:04;;;;;;;4.47;1.43;;;;;;;0.37;100.00;98211.97;5109065;28;20201;-60
2024/01/08 06:33:31;;;;;;;0.73;0.67;;;;;;;0.50;100.00;98224.81;5108441;28;20325;-59
2024/01/08 06:35:58;;;;;;;0.57;0.57;;;;;;;0.44;100.00;98223.38;5109162;28;20216;-59
2024/01/08 06:38:25;;;;;;;3.67;1.17;;;;;;;0.40;100.00;98242.00;5109169;28;20197;-60
2024/01/08 06:40:54;;;;;;;0.73;0.73;;;;;;;0.46;100.00;98246.75;5107679;28;20232;-60
2024/01/08 06:43:20;;;;;;;0.83;0.80;;;;;;;0.50;100.00;98252.47;5109034;28;20209;-59
2024/01/08 06:45:49;;;;;;;0.63;0.60;;;;;;;0.27;100.00;98250.97;5108784;28;20205;-60
2024/01/08 06:48:15;;;;;;;2.47;1.50;;;;;;;0.28;100.00;98272.72;5108228;28;20208;-59
2024/01/08 06:50:42;;;;;;;1.73;0.93;;;;;;;0.33;100.00;98270.81;5108660;28;20204;-60
2024/01/08 06:53:09;;;;;;;2.03;1.60;;;;;;;0.12;100.00;98268.34;5109263;28;20208;-60
2024/01/08 06:55:36;;;;;;;2.17;1.73;;;;;;;0.00;100.00;98289.00;5108735;28;20232;-59
2024/01/08 06:58:04;;;;;;;1.00;0.63;;;;;;;0.08;100.00;98286.94;5111611;28;20447;-60
2024/01/08 07:00:31;;;;;;;0.50;0.50;;;;;;;0.03;100.00;98288.84;5112982;28;20201;-59
2024/01/08 07:02:58;;;;;;;1.63;1.47;;;;;;;-0.04;100.00;98305.06;5113008;28;20474;-59
2024/01/08 07:05:25;;;;;;;1.20;0.70;;;;;;;-0.12;100.00;98312.09;5112291;28;20439;-59
2024/01/08 07:07:52;;;;;;;1.43;1.30;;;;;;;-0.10;100.00;98307.81;5112877;28;20913;-59
2024/01/08 07:10:19;;;;;;;2.40;1.43;;;;;;;-0.25;100.00;98315.09;5112845;28;20542;-59
2024/01/08 07:12:46;;;;;;;2.70;1.17;;;;;;;-0.25;100.00;98312.59;5111961;28;21084;-59
2024/01/08 07:15:39;;;;;;;0.47;0.47;;;;;;;-0.24;100.00;98328.47;5112371;28;20976;-59
2024/01/08 07:18:08;;;;;;;1.77;1.07;;;;;;;-0.21;100.00;98325.03;5112986;28;20443;-59
2024/01/08 07:20:36;;;;;;;1.80;1.57;;;;;;;-0.31;100.00;98330.44;5111822;28;20442;-59
2024/01/08 07:23:04;;;;;;;4.33;2.13;;;;;;;-0.34;100.00;98340.59;5112316;28;20486;-59
2024/01/08 07:25:30;;;;;;;4.80;1.80;;;;;;;-0.35;100.00;98349.03;5112511;28;20439;-60
2024/01/08 07:27:57;;;;;;;1.00;0.90;;;;;;;-0.35;100.00;98349.03;5111866;28;20489;-59
2024/01/08 07:30:24;;;;;;;1.43;1.33;;;;;;;-0.34;100.00;98350.66;5112648;28;20451;-59
2024/01/08 07:32:53;;;;;;;4.40;1.87;;;;;;;-0.46;100.00;98356.16;5112174;28;21002;-59
2024/01/08 07:35:20;;;;;;;4.87;2.33;;;;;;;-0.48;100.00;98357.91;5112318;28;20458;-59
2024/01/08 07:37:49;;;;;;;4.07;2.00;;;;;;;-0.54;100.00;98363.97;5112249;28;20963;-59
2024/01/08 07:40:16;;;;;;;6.10;2.57;;;;;;;-0.54;100.00;98373.22;5112029;28;20474;-59
2024/01/08 07:42:43;;;;;;;1.77;1.13;;;;;;;-0.50;100.00;98370.50;5111989;28;20454;-59
2024/01/08 07:45:10;;;;;;;2.67;1.20;;;;;;;-0.50;100.00;98375.53;5112362;28;20450;-59
2024/01/08 07:47:37;;;;;;;4.00;1.63;;;;;;;-0.51;100.00;98378.13;5112065;28;20568;-59
2024/01/08 07:50:06;;;;;;;1.13;0.60;;;;;;;-0.50;100.00;98379.75;5112055;28;20993;-59
2024/01/08 07:52:33;;;;;;;2.90;1.63;;;;;;;-0.45;100.00;98390.44;5112581;28;20435;-59
2024/01/08 07:55:00;;;;;;;1.90;1.43;;;;;;;-0.44;100.00;98399.59;5111771;27;20446;-59
2024/01/08 07:57:26;;;;;;;1.17;1.07;;;;;;;-0.51;100.00;98394.00;5112179;28;20798;-59
2024/01/08 07:59:53;;;;;;;2.57;1.13;;;;;;;-0.52;100.00;98396.56;5112122;28;20458;-59
2024/01/08 08:02:20;;;;;;;4.13;2.40;;;;;;;-0.53;100.00;98403.25;5111820;27;20449;-59
2024/01/08 08:04:47;;;;;;;3.57;2.30;;;;;;;-0.65;100.00;98410.47;5111685;28;20840;-59
2024/01/08 08:07:15;;;;;;;0.43;0.43;;;;;;;-0.55;100.00;98412.56;5111620;28;20490;-59
2024/01/08 08:09:42;;;;;;;4.30;2.03;;;;;;;-0.55;100.00;98412.56;5110816;28;20834;-59
2024/01/08 08:12:09;;;;;;;0.83;0.77;;;;;;;-0.51;100.00;98428.31;5111605;28;20447;-59
2024/01/08 08:14:36;;;;;;;1.23;1.13;;;;;;;-0.41;100.00;98427.09;5111821;28;20457;-59
2024/01/08 08:17:04;;;;;;;1.33;0.90;;;;;;;-0.39;100.00;98437.91;5111810;28;20543;-59
2024/01/08 08:19:30;;;;;;;0.43;0.43;;;;;;;-0.38;100.00;98442.03;5111270;28;20451;-59
2024/01/08 08:21:57;;;;;;;2.20;1.93;;;;;;;-0.33;100.00;98441.88;5111268;28;20863;-59
2024/01/08 08:24:26;;;;;;;0.57;0.57;;;;;;;-0.40;100.00;98443.81;5111240;28;20451;-59
2024/01/08 08:26:52;;;;;;;0.77;0.40;;;;;;;-0.39;100.00;98452.97;5110987;28;20498;-59
2024/01/08 08:29:19;;;;;;;2.10;1.50;;;;;;;-0.41;100.00;98462.25;5111340;28;20986;-59
2024/01/08 08:31:46;;;;;;;0.57;0.50;;;;;;;-0.32;100.00;98466.09;5111349;28;20447;-59
2024/01/08 08:34:13;;;;;;;4.47;2.60;;;;;;;-0.46;100.00;98466.66;5111070;28;20450;-59
2024/01/08 08:36:41;;;;;;;5.80;2.40;;;;;;;-0.50;100.00;98475.16;5110990;28;20971;-59
2024/01/08 08:39:08;;;;;;;1.57;1.23;;;;;;;-0.46;100.00;98484.22;5111053;27;20947;-59
2024/01/08 08:41:37;;;;;;;1.50;0.90;;;;;;;-0.46;100.00;98482.53;5111143;28;20458;-58
2024/01/08 08:44:04;;;;;;;1.07;0.97;;;;;;;-0.39;100.00;98488.13;5111151;28;20439;-59
2024/01/08 08:46:31;;;;;;;2.00;1.50;;;;;;;-0.46;100.00;98490.06;5110280;28;20564;-59
2024/01/08 08:48:57;;;;;;;0.30;0.30;;;;;;;-0.41;100.00;98494.88;5109503;28;20951;-59
2024/01/08 08:51:24;;;;;;;1.40;1.17;;;;;;;-0.48;100.00;98498.53;5109940;28;20470;-59
2024/01/08 08:53:51;;;;;;;0.53;0.53;;;;;;;-0.51;100.00;98493.63;5110763;28;20451;-59
2024/01/08 08:56:18;;;;;;;0.73;0.63;;;;;;;-0.48;100.00;98498.53;5110682;27;20852;-59
2024/01/08 08:58:46;;;;;;;1.77;1.53;;;;;;;-0.35;100.00;98499.72;5111002;28;20446;-59
2024/01/08 09:01:14;;;;;;;0.60;0.60;;;;;;;-0.51;100.00;98506.16;5111103;28;20464;-58
2024/01/08 09:03:41;;;;;;;0.90;0.90;;;;;;;-0.54;100.00;98508.78;5110784;28;20439;-59
2024/01/08 09:06:08;;;;;;;3.50;1.97;;;;;;;-0.46;100.00;98515.16;5110690;28;20455;-59
2024/01/08 09:08:35;;;;;;;0.20;0.20;;;;;;;-0.55;100.00;98518.03;5110606;28;20526;-59
2024/01/08 09:11:02;;;;;;;2.63;1.70;;;;;;;-0.65;100.00;98521.72;5110810;28;20467;-59
2024/01/08 09:13:29;;;;;;;4.20;2.83;;;;;;;-0.71;100.00;98530.28;5110712;28;20459;-59
2024/01/08 09:15:57;;;;;;;2.00;1.23;;;;;;;-0.66;100.00;98529.31;5110325;28;20858;-59
2024/01/08 09:18:24;;;;;;;0.50;0.50;;;;;;;-0.64;100.00;98525.88;5110535;28;20454;-59
2024/01/08 09:20:51;;;;;;;0.80;0.80;;;;;;;-0.60;100.00;98534.13;5109177;28;20451;-59
2024/01/08 09:23:17;;;;;;;2.33;1.73;;;;;;;-0.65;100.00;98535.97;5110278;28;20454;-59
2024/01/08 09:25:44;;;;;;;1.50;0.93;;;;;;;-0.59;100.00;98545.78;5110227;28;20971;-59
2024/01/08 09:28:11;;;;;;;0.87;0.83;;;;;;;-0.72;100.00;98548.75;5110158;28;21014;-59
2024/01/08 09:30:38;;;;;;;5.37;2.00;;;;;;;-0.79;100.00;98557.34;5110255;27;20443;-59
2024/01/08 09:33:06;;;;;;;4.10;1.90;;;;;;;-0.80;100.00;98550.69;5110251;28;20443;-59
2024/01/08 09:35:33;;;;;;;4.70;2.47;;;;;;;-1.00;100.00;98560.59;5110328;28;20943;-58
2024/01/08 09:38:00;;;;;;;4.03;1.90;;;;;;;-1.03;100.00;98560.69;5109938;28;20458;-59
2024/01/08 09:40:27;;;;;;;8.53;3.60;;;;;;;-1.12;100.00;98568.53;5109935;28;20476;-58
2024/01/08 09:42:55;;;;;;;2.90;1.77;;;;;;;-0.96;100.00;98562.13;5109858;28;20447;-59
2024/01/08 09:45:24;;;;;;;3.10;2.13;;;;;;;-0.95;100.00;98566.28;5109681;28;20447;-59
2024/01/08 09:47:52;;;;;;;3.17;2.00;;;;;;;-1.13;100.00;98560.19;5109938;28;20877;-59
2024/01/08 09:50:21;;;;;;;0.67;0.43;;;;;;;-0.98;100.00;98564.69;5109638;28;20447;-58
2024/01/08 09:52:49;;;;;;;2.33;1.83;;;;;;;-1.03;100.00;98566.53;5109684;28;20443;-59
2024/01/08 09:55:17;;;;;;;0.43;0.43;;;;;;;-1.02;100.00;98567.34;5109385;28;21026;-59
2024/01/08 09:57:43;;;;;;;0.10;0.10;;;;;;;-1.03;100.00;98570.72;5109523;28;20484;-58
2024/01/08 10:00:11;;;;;;;3.40;1.90;;;;;;;-1.03;100.00;98560.69;5109605;28;20455;-59
2024/01/08 10:02:38;;;;;;;1.77;1.43;;;;;;;-1.00;100.00;98570.63;5109514;28;20450;-59
2024/01/08 10:05:07;;;;;;;2.40;1.80;;;;;;;-1.02;100.00;98570.69;5109441;28;20474;-59
2024/01/08 10:07:35;;;;;;;0.70;0.70;;;;;;;-0.96;100.00;98569.66;5109331;28;20509;-59
2024/01/08 10:10:03;;;;;;;1.10;1.00;;;;;;;-1.03;100.00;98578.25;5109316;28;20439;-59
2024/01/08 10:12:32;;;;;;;1.23;1.00;;;;;;;-1.00;100.00;98576.47;5109395;28;20921;-59
2024/01/08 10:14:59;;;;;;;1.27;1.27;;;;;;;-0.87;100.00;98586.94;5109363;28;20975;-59
2024/01/08 10:17:26;;;;;;;4.57;2.00;;;;;;;-0.95;100.00;98586.34;5109453;28;20525;-59
2024/01/08 10:20:05;;;;;;;1.53;1.13;;;;;;;-0.98;100.00;98584.75;5109092;28;20451;-59
2024/01/08 10:22:32;;;;;;;1.47;0.80;;;;;;;-1.06;100.00;98590.91;5109486;28;20442;-59
2024/01/08 10:25:03;;;;;;;2.17;1.10;;;;;;;-0.94;100.00;98595.50;5108956;28;20948;-59
2024/01/08 10:27:30;;;;;;;2.50;1.67;;;;;;;-0.99;100.00;98597.34;5109147;28;20871;-59
2024/01/08 10:29:57;;;;;;;0.50;0.50;;;;;;;-0.97;100.00;98595.63;5109117;28;20967;-59
2024/01/08 10:32:24;;;;;;;3.97;2.17;;;;;;;-0.96;100.00;98602.25;5108586;28;20835;-59
2024/01/08 10:34:52;;;;;;;0.57;0.50;;;;;;;-0.92;100.00;98601.31;5108899;28;20653;-60
2024/01/08 10:37:19;;;;;;;0.83;0.83;;;;;;;-0.89;100.00;98606.22;5109276;28;20478;-59
2024/01/08 10:39:48;;;;;;;2.30;1.33;;;;;;;-0.97;100.00;98608.97;5108745;28;20952;-59
2024/01/08 10:42:16;;;;;;;2.57;1.47;;;;;;;-0.84;100.00;98606.06;5108757;28;20505;-59
2024/01/08 10:44:43;;;;;;;3.90;1.87;;;;;;;-0.98;100.00;98612.38;5109175;28;20462;-59
2024/01/08 10:47:11;;;;;;;2.37;1.47;;;;;;;-1.06;100.00;98610.97;5108750;28;21080;-59
2024/01/08 10:49:38;;;;;;;0.70;0.67;;;;;;;-1.01;100.00;98614.16;5109072;28;20459;-59
2024/01/08 10:52:14;;;;;;;2.13;1.00;;;;;;;-0.89;100.00;98621.28;5108949;28;20447;-59
2024/01/08 10:54:51;;;;;;;1.67;0.90;;;;;;;-0.95;100.00;98619.78;5108632;28;20822;-58
2024/01/08 10:57:21;;;;;;;3.00;2.00;;;;;;;-0.99;100.00;98619.94;5109203;28;20423;-59
2024/01/08 10:59:51;;;;;;;1.70;1.47;;;;;;;-1.05;100.00;98622.63;5108676;28;20947;-58
2024/01/08 11:02:18;;;;;;;2.27;1.57;;;;;;;-1.09;100.00;98634.47;5108817;28;20444;-59
2024/01/08 11:04:46;;;;;;;3.70;2.20;;;;;;;-1.17;100.00;98629.69;5108567;28;20806;-59
2024/01/08 11:07:14;;;;;;;4.83;2.17;;;;;;;-1.21;100.00;98633.19;5108689;28;20539;-59
2024/01/08 11:09:41;;;;;;;0.80;0.80;;;;;;;-1.18;100.00;98632.25;5108955;28;20431;-59
2024/01/08 11:12:10;;;;;;;0.47;0.47;;;;;;;-1.16;100.00;98628.84;5108739;28;20967;-59
2024/01/08 11:14:40;;;;;;;1.57;1.47;;;;;;;-1.21;100.00;98638.19;5108597;28;20830;-59
2024/01/08 11:17:09;;;;;;;0.80;0.70;;;;;;;-1.08;100.00;98643.63;5109145;28;20531;-59
2024/01/08 11:19:40;;;;;;;3.60;1.07;;;;;;;-1.16;100.00;98643.88;5108742;28;20443;-59
2024/01/08 11:22:11;;;;;;;4.63;2.30;;;;;;;-1.19;100.00;98650.69;5108694;28;20458;-59
2024/01/08 11:24:38;;;;;;;0.57;0.57;;;;;;;-1.24;100.00;98652.53;5108765;28;20447;-60
2024/01/08 11:27:06;;;;;;;0.90;0.90;;;;;;;-1.39;100.00;98653.81;5108683;28;20458;-59
2024/01/08 11:29:33;;;;;;;2.03;1.70;;;;;;;-1.35;100.00;98660.38;5108602;28;20443;-59